Daily Summary

Last 30 Days

Daily Data | Pacific/Honolulu
as of 5/9/21 7:26 AM HST
Date Daily Max Temp (°F) Time of Max Temp Daily Min Temp (°F) Time of Min Temp Daily Rain (In) Seasonal Rainfall (In) Wind Spd (mph) Daily Max Wind (mph) Time of Max Wind Max Wind Dir (°) Daily Solar Rad (Cal/cm2) Daily ETo (in) Dew Pt (°F) Max RH (%) Min RH (%) Max Press (inHg) Time of Max Press Min Press (inHg) Time of Min Press Bat Volt Min Day (V)
5/8/21 82.0 1310 73.2 2314 0.02 18.52 7.8 22.0 1148 NNE | 31 664 0.238 65.1 85 54 30.13 2248 30.01 0425 12.8
5/7/21 82.7 1334 70.6 0152 0.01 18.50 6.1 24.5 1713 NNE | 22 531 0.193 67.1 90 58 30.11 2256 29.99 1604 12.8
5/6/21 79.3 1341 71.2 2051 0.25 18.49 5.4 19.1 0038 NE | 48 228 0.101 67.0 92 67 30.11 2236 29.99 1700 12.8
5/5/21 80.2 1249 74.0 1844 0.01 18.24 8.3 24.4 1155 NE | 34 418 0.167 66.0 77 60 30.15 0003 30.00 1629 12.8
5/4/21 82.4 1109 71.3 0514 0.00 18.23 5.9 23.9 1407 NNE | 24 652 0.224 66.4 83 56 30.16 2206 30.05 1555 12.8
5/3/21 82.6 1256 74.3 0300 0.00 18.23 7.3 21.8 1208 NNE | 24 641 0.232 65.6 75 55 30.14 2305 30.02 1600 12.8
5/2/21 80.7 1423 73.6 0829 0.01 18.23 8.1 25.6 1159 NE | 42 582 0.207 66.0 82 58 30.17 0918 30.04 1520 12.8
5/1/21 82.1 1138 73.8 0531 0.02 18.22 8.8 25.5 2058 ENE | 74 624 0.223 66.6 79 59 30.16 1002 30.05 1440 12.8
4/30/21 79.9 1327 71.2 0034 0.00 18.20 7.4 25.0 1301 NE | 43 570 0.189 67.0 86 65 30.16 1059 30.05 1653 12.8
4/29/21 81.2 1206 71.0 0001 0.00 18.20 8.0 25.3 1624 NE | 37 647 0.224 65.8 92 56 30.15 2219 30.03 1550 12.8
4/28/21 81.6 1050 68.4 1933 0.39 18.20 3.3 11.5 0952 SSW | 202 275 0.096 66.8 94 61 30.11 2127 29.97 0338 12.8
4/27/21 80.6 1145 70.2 0529 0.25 17.81 4.0 15.4 1250 SSW | 212 586 0.184 68.3 93 62 30.07 0001 29.94 1633 12.8
4/26/21 81.5 1011 73.2 2340 0.00 17.56 4.5 15.4 0002 ENE | 57 508 0.179 65.6 82 56 30.13 0005 30.01 1508 12.8
4/25/21 82.0 1232 73.2 0116 0.00 17.56 7.9 24.7 1622 NNE | 24 657 0.231 64.8 76 58 30.17 1037 30.05 1629 12.8
4/24/21 79.9 1456 72.6 0534 0.01 17.56 8.9 26.3 0926 NNE | 16 647 0.231 64.4 78 56 30.17 2328 30.05 1658 12.8
4/23/21 80.7 1259 73.9 0454 0.00 17.55 8.3 24.9 1734 NE | 35 646 0.232 64.0 75 59 30.16 2251 30.03 1613 12.8
4/22/21 83.1 1404 73.9 0550 0.00 17.55 6.7 23.2 2327 ENE | 67 650 0.235 64.4 75 51 30.13 0934 30.01 1637 12.8
4/21/21 84.0 1322 70.1 0500 0.00 17.55 5.7 20.3 1238 NNE | 31 634 0.229 65.8 87 51 30.12 2258 29.99 1621 12.8
4/20/21 83.1 1042 71.1 0619 0.00 17.55 2.8 13.0 1110 SW | 231 353 0.129 65.6 82 56 30.11 0859 30.02 1659 12.8
4/19/21 86.1 1433 69.5 0538 0.01 17.55 3.6 13.3 1557 SSW | 203 627 0.214 64.9 88 47 30.14 0746 30.02 1515 12.8
4/18/21 81.1 1337 71.0 0230 0.00 17.54 8.0 25.6 1224 NE | 40 654 0.230 62.9 76 49 30.15 0851 30.03 1720 12.8
4/17/21 77.6 1502 68.4 0627 0.00 17.54 8.0 27.2 1225 NNE | 21 582 0.197 62.7 85 59 30.12 2338 29.98 0328 12.8
4/16/21 78.6 1244 66.3 0648 0.00 17.54 3.2 13.3 1204 SSW | 196 314 0.116 62.2 82 54 30.10 0007 29.98 1627 12.8
4/15/21 79.5 1252 70.0 0605 0.00 17.54 7.5 27.9 1622 NNE | 33 616 0.216 61.6 75 48 30.15 1004 30.01 1622 12.8
4/14/21 79.5 1427 69.9 0622 0.00 17.54 6.3 26.5 1643 NNE | 26 666 0.227 61.2 77 52 30.16 0906 30.04 1604 12.8
4/13/21 78.1 1349 68.6 0622 0.00 17.54 6.6 26.8 1123 NNE | 31 649 0.219 61.0 82 44 30.12 2316 29.98 0343 12.8
4/12/21 79.5 1251 67.1 0521 0.00 17.54 6.3 23.8 1602 NNE | 29 639 0.215 61.7 83 52 30.05 2319 29.90 1559 12.7
4/11/21 77.0 1406 66.1 0324 0.00 17.54 3.6 20.6 2105 NE | 40 421 0.142 60.6 81 56 30.03 0004 29.89 1703 12.7
4/10/21 77.6 1220 67.3 0410 0.00 17.54 6.1 20.0 2025 NE | 45 436 0.169 58.9 82 50 30.09 0002 29.95 1753 12.8
4/9/21 78.4 1339 69.4 0812 0.00 17.54 7.0 33.7 1532 NE | 40 630 0.216 59.8 77 52 30.14 0834 29.98 1532 12.8
Max 86.1 - 74.3 - 0.39 - 8.9 33.7 - - 666 0.238 68.3 94 67 30.17 - 30.05 - 12.8
Avg - - - - - - 6.4 - - - - - 64.3 - - - - - - -
Min 77.0 - 66.1 - 0.00 - 2.8 11.5 - - 228 0.096 58.9 75 44 30.03 - 29.89 - 12.7